Time;durP1;ratioP1;P1;durP2;ratioP2;P2;SDS_P1;SDS_P2;PMS_P1;PMS_P2;Temp;Humidity;BMP_temperature;BMP_pressure;BME280_temperature;BME280_humidity;BME280_pressure;Samples;Min_cycle;Max_cycle;Signal;HPM_P1;HPM_P2
2021/10/13 00:02:06;;;;;;;1.90;1.13;;;;;;;;;;5024514;28;20025;-66
2021/10/13 00:04:32;;;;;;;1.92;1.05;;;;;;;;;;5014330;28;20026;-68
2021/10/13 00:06:58;;;;;;;3.03;1.33;;;;;;;;;;5010707;28;20010;-68
2021/10/13 00:09:24;;;;;;;2.60;1.00;;;;;;;;;;5009618;28;20017;-68
2021/10/13 00:11:50;;;;;;;1.77;0.90;;;;;;;;;;5010407;28;20036;-68
2021/10/13 00:14:16;;;;;;;3.13;1.00;;;;;;;;;;5009691;28;20026;-63
2021/10/13 00:16:51;;;;;;;1.30;1.17;;;;;;;;;;5010767;28;20071;-68
2021/10/13 00:19:17;;;;;;;1.45;0.80;;;;;;;;;;5006957;28;20045;-67
2021/10/13 00:21:43;;;;;;;0.80;0.80;;;;;;;;;;5010229;28;20026;-68
2021/10/13 00:24:09;;;;;;;1.08;0.98;;;;;;;;;;5010279;28;20025;-67
2021/10/13 00:26:35;;;;;;;1.08;0.95;;;;;;;;;;5009537;28;20029;-66
2021/10/13 00:29:01;;;;;;;1.27;1.00;;;;;;;;;;4992847;28;20100;-68
2021/10/13 00:31:27;;;;;;;1.30;0.90;;;;;;;;;;5009123;28;20096;-68
2021/10/13 00:33:53;;;;;;;1.67;1.10;;;;;;;;;;5010283;28;20026;-67
2021/10/13 00:36:19;;;;;;;1.70;1.10;;;;;;;;;;5009110;28;20021;-67
2021/10/13 00:38:45;;;;;;;1.65;0.85;;;;;;;;;;5009886;28;20075;-66
2021/10/13 00:41:11;;;;;;;1.15;0.70;;;;;;;;;;5010337;28;20018;-68
2021/10/13 00:43:37;;;;;;;1.00;0.80;;;;;;;;;;5006358;28;20022;-67
2021/10/13 00:46:04;;;;;;;1.52;1.20;;;;;;;;;;5009851;28;20474;-68
2021/10/13 00:48:30;;;;;;;1.42;1.00;;;;;;;;;;5009721;28;20051;-68
2021/10/13 00:50:56;;;;;;;1.42;1.13;;;;;;;;;;4993522;28;20108;-68
2021/10/13 00:53:23;;;;;;;2.20;1.10;;;;;;;;;;5010559;28;20199;-68
2021/10/13 00:55:52;;;;;;;1.35;0.90;;;;;;;;;;5011003;28;20158;-68
2021/10/13 00:58:18;;;;;;;2.22;0.88;;;;;;;;;;5010319;28;20059;-64
2021/10/13 01:00:45;;;;;;;2.33;1.00;;;;;;;;;;5010871;28;20033;-68
2021/10/13 01:03:19;;;;;;;1.15;0.82;;;;;;;;;;5011048;28;20110;-68
2021/10/13 01:05:45;;;;;;;2.92;1.48;;;;;;;;;;5011059;28;20014;-68
2021/10/13 01:08:11;;;;;;;2.30;1.00;;;;;;;;;;5011003;28;20381;-68
2021/10/13 01:10:42;;;;;;;2.10;1.20;;;;;;;;;;5010048;28;20106;-68
2021/10/13 01:13:28;;;;;;;1.73;1.10;;;;;;;;;;5010981;28;20405;-68
2021/10/13 01:16:00;;;;;;;6.28;1.35;;;;;;;;;;5012452;28;20390;-68
2021/10/13 01:18:30;;;;;;;2.13;0.88;;;;;;;;;;5010064;28;20458;-68
2021/10/13 01:21:04;;;;;;;1.10;0.95;;;;;;;;;;5010315;28;20458;-65
2021/10/13 01:23:39;;;;;;;2.63;1.00;;;;;;;;;;5009570;28;20095;-68
2021/10/13 01:26:19;;;;;;;1.20;0.98;;;;;;;;;;5010693;28;20033;-68
2021/10/13 01:28:46;;;;;;;1.67;0.90;;;;;;;;;;5010592;28;20100;-67
2021/10/13 01:31:24;;;;;;;1.70;1.27;;;;;;;;;;5010604;28;20450;-68
2021/10/13 01:34:00;;;;;;;3.72;1.88;;;;;;;;;;5010501;28;20058;-68
2021/10/13 01:36:32;;;;;;;1.45;0.68;;;;;;;;;;5009385;28;20451;-68
2021/10/13 01:38:58;;;;;;;;;;;;;;;;;;5010652;28;20053;-67
2021/10/13 01:41:26;;;;;;;2.17;1.52;;;;;;;;;;5009541;28;19932;-67
2021/10/13 01:43:53;;;;;;;0.73;0.73;;;;;;;;;;5010708;28;20025;-67
2021/10/13 01:46:21;;;;;;;2.78;1.05;;;;;;;;;;5009442;28;20075;-63
2021/10/13 01:48:47;;;;;;;1.63;0.80;;;;;;;;;;5010317;28;20374;-68
2021/10/13 01:51:14;;;;;;;2.65;0.90;;;;;;;;;;5010294;28;20435;-68
2021/10/13 01:53:40;;;;;;;1.42;0.90;;;;;;;;;;5008858;28;20046;-68
2021/10/13 01:56:07;;;;;;;1.27;0.98;;;;;;;;;;5010018;28;20022;-67
2021/10/13 01:58:34;;;;;;;1.20;0.90;;;;;;;;;;5009131;28;20024;-67
2021/10/13 02:01:02;;;;;;;1.67;1.23;;;;;;;;;;5010137;28;20481;-68
2021/10/13 02:03:29;;;;;;;3.17;1.63;;;;;;;;;;5009121;28;20018;-67
2021/10/13 02:05:57;;;;;;;1.10;0.70;;;;;;;;;;5010059;28;20022;-68
2021/10/13 02:08:24;;;;;;;1.50;0.95;;;;;;;;;;5009463;28;20086;-67
2021/10/13 02:10:51;;;;;;;1.60;0.90;;;;;;;;;;5010299;28;20033;-67
2021/10/13 02:13:18;;;;;;;1.50;0.88;;;;;;;;;;5009266;28;20086;-66
2021/10/13 02:15:48;;;;;;;1.58;1.13;;;;;;;;;;5009027;28;20030;-67
2021/10/13 02:18:15;;;;;;;1.90;1.05;;;;;;;;;;5009759;28;20041;-67
2021/10/13 02:20:42;;;;;;;2.75;1.02;;;;;;;;;;5008770;28;20049;-68
2021/10/13 02:23:08;;;;;;;1.30;0.90;;;;;;;;;;5010136;28;20049;-67
2021/10/13 02:25:35;;;;;;;1.45;1.10;;;;;;;;;;5009025;28;20032;-68
2021/10/13 02:28:06;;;;;;;1.23;0.70;;;;;;;;;;5009654;28;20475;-67
2021/10/13 02:30:32;;;;;;;1.08;0.77;;;;;;;;;;5009231;28;20021;-68
2021/10/13 02:32:59;;;;;;;1.80;1.05;;;;;;;;;;5009364;28;20384;-68
2021/10/13 02:35:25;;;;;;;1.08;0.88;;;;;;;;;;5008928;28;20049;-68
2021/10/13 02:37:51;;;;;;;1.35;0.90;;;;;;;;;;5009435;28;20075;-68
2021/10/13 02:40:17;;;;;;;1.75;1.27;;;;;;;;;;5009163;28;20480;-64
2021/10/13 02:42:43;;;;;;;1.38;0.77;;;;;;;;;;5008968;28;20107;-68
2021/10/13 02:45:10;;;;;;;1.83;0.95;;;;;;;;;;5009707;28;20018;-68
2021/10/13 02:47:37;;;;;;;0.85;0.60;;;;;;;;;;5008370;28;20578;-67
2021/10/13 02:50:10;;;;;;;1.90;0.82;;;;;;;;;;5009268;28;20026;-68
2021/10/13 02:52:40;;;;;;;1.30;0.90;;;;;;;;;;5008175;28;20478;-67
2021/10/13 02:55:08;;;;;;;1.13;1.00;;;;;;;;;;5009315;28;20021;-68
2021/10/13 02:57:44;;;;;;;1.67;0.90;;;;;;;;;;5008535;28;20455;-67
2021/10/13 03:00:11;;;;;;;1.83;0.90;;;;;;;;;;5009277;28;20063;-67
2021/10/13 03:02:49;;;;;;;1.50;0.80;;;;;;;;;;5008419;28;20026;-67
2021/10/13 03:05:18;;;;;;;1.95;0.90;;;;;;;;;;5009455;28;20022;-67
2021/10/13 03:07:45;;;;;;;1.65;0.90;;;;;;;;;;5008398;28;20083;-67
2021/10/13 03:10:11;;;;;;;1.33;0.70;;;;;;;;;;5009287;28;20020;-67
2021/10/13 03:12:40;;;;;;;1.70;1.00;;;;;;;;;;5008232;28;20034;-68
2021/10/13 03:15:06;;;;;;;1.63;0.93;;;;;;;;;;5008940;28;20014;-67
2021/10/13 03:17:33;;;;;;;1.23;0.80;;;;;;;;;;5008324;28;20025;-67
2021/10/13 03:19:59;;;;;;;0.93;0.70;;;;;;;;;;5008768;28;20026;-67
2021/10/13 03:22:26;;;;;;;1.00;0.80;;;;;;;;;;5008274;28;20348;-67
2021/10/13 03:24:52;;;;;;;0.63;0.63;;;;;;;;;;5009233;28;20025;-68
2021/10/13 03:27:18;;;;;;;1.40;0.90;;;;;;;;;;5008568;28;20375;-67
2021/10/13 03:29:44;;;;;;;1.63;0.88;;;;;;;;;;5008016;28;20026;-67
2021/10/13 03:32:10;;;;;;;1.38;0.85;;;;;;;;;;5008753;28;20022;-67
2021/10/13 03:34:36;;;;;;;2.08;0.90;;;;;;;;;;5007881;28;20018;-68
2021/10/13 03:37:02;;;;;;;1.67;0.95;;;;;;;;;;5008849;28;20033;-68
2021/10/13 03:39:28;;;;;;;1.38;0.98;;;;;;;;;;5009894;28;20118;-68
2021/10/13 03:41:54;;;;;;;1.65;1.10;;;;;;;;;;5012079;28;20022;-67
2021/10/13 03:44:20;;;;;;;1.67;0.90;;;;;;;;;;5012034;28;20025;-63
2021/10/13 03:46:46;;;;;;;0.90;0.73;;;;;;;;;;5011402;28;20044;-68
2021/10/13 03:49:12;;;;;;;0.93;0.70;;;;;;;;;;4994472;28;20399;-67
2021/10/13 03:51:38;;;;;;;1.23;0.93;;;;;;;;;;5010647;28;20087;-67
2021/10/13 03:54:05;;;;;;;1.88;0.90;;;;;;;;;;5012018;28;20447;-68
2021/10/13 03:56:31;;;;;;;1.02;0.93;;;;;;;;;;5011255;28;20050;-68
2021/10/13 03:58:57;;;;;;;1.73;1.00;;;;;;;;;;5011975;28;20089;-68
2021/10/13 04:01:23;;;;;;;1.38;0.80;;;;;;;;;;5011332;28;20053;-63
2021/10/13 04:03:49;;;;;;;1.40;0.88;;;;;;;;;;4994347;28;20054;-68
2021/10/13 04:06:15;;;;;;;1.20;0.80;;;;;;;;;;5011632;28;20049;-68
2021/10/13 04:08:41;;;;;;;1.63;0.73;;;;;;;;;;5011321;28;20064;-67
2021/10/13 04:11:07;;;;;;;2.30;1.00;;;;;;;;;;5011803;28;20359;-69
2021/10/13 04:13:33;;;;;;;7.32;1.55;;;;;;;;;;5010866;28;20038;-67
2021/10/13 04:16:00;;;;;;;0.85;0.80;;;;;;;;;;5011859;28;20037;-68
2021/10/13 04:18:26;;;;;;;1.65;1.00;;;;;;;;;;5010806;28;20454;-67
2021/10/13 04:20:52;;;;;;;1.40;0.90;;;;;;;;;;5011582;28;20018;-68
2021/10/13 04:23:18;;;;;;;1.50;0.70;;;;;;;;;;5011509;28;20030;-67
2021/10/13 04:25:44;;;;;;;3.40;1.00;;;;;;;;;;5010826;28;20022;-67
2021/10/13 04:28:10;;;;;;;1.27;1.08;;;;;;;;;;5011350;28;20021;-67
2021/10/13 04:30:37;;;;;;;1.63;1.10;;;;;;;;;;5010712;28;20343;-67
2021/10/13 04:33:04;;;;;;;1.52;0.90;;;;;;;;;;5011516;28;20550;-67
2021/10/13 04:35:30;;;;;;;1.67;1.05;;;;;;;;;;5010551;28;20040;-66
2021/10/13 04:37:56;;;;;;;1.88;1.05;;;;;;;;;;5010982;28;20441;-65
2021/10/13 04:40:22;;;;;;;1.70;0.80;;;;;;;;;;5011396;28;20048;-63
2021/10/13 04:42:48;;;;;;;1.92;1.00;;;;;;;;;;5010444;28;20037;-68
2021/10/13 04:45:14;;;;;;;3.28;1.23;;;;;;;;;;5011213;28;20018;-68
2021/10/13 04:47:40;;;;;;;2.10;0.90;;;;;;;;;;5004602;28;20101;-67
2021/10/13 04:50:06;;;;;;;1.77;1.08;;;;;;;;;;5008530;28;20462;-67
2021/10/13 04:52:32;;;;;;;1.95;0.90;;;;;;;;;;4979386;28;20578;-66
2021/10/13 04:54:58;;;;;;;1.67;1.17;;;;;;;;;;5000372;28;20032;-63
2021/10/13 04:57:25;;;;;;;1.98;0.90;;;;;;;;;;5010328;28;20038;-67
2021/10/13 04:59:54;;;;;;;3.08;0.90;;;;;;;;;;5008691;28;20359;-67
2021/10/13 05:02:20;;;;;;;3.60;1.23;;;;;;;;;;5010836;28;20386;-67
2021/10/13 05:04:46;;;;;;;1.88;0.98;;;;;;;;;;5009914;28;20021;-67
2021/10/13 05:07:12;;;;;;;1.73;1.00;;;;;;;;;;5010429;28;20017;-67
2021/10/13 05:09:38;;;;;;;2.45;0.82;;;;;;;;;;5010003;28;20029;-67
2021/10/13 05:12:04;;;;;;;1.70;1.20;;;;;;;;;;5010655;28;20030;-67
2021/10/13 05:14:30;;;;;;;1.50;1.20;;;;;;;;;;5009890;28;20018;-67
2021/10/13 05:16:56;;;;;;;0.80;0.70;;;;;;;;;;5005149;28;20122;-66
2021/10/13 15:36:32;;;;;;;2.35;0.95;;;;;;;;;;5171385;27;20106;-52
2021/10/13 15:38:58;;;;;;;6.50;1.15;;;;;;;;;;5150192;27;20030;-56
2021/10/13 15:41:23;;;;;;;4.00;1.13;;;;;;;;;;5151224;27;20026;-58
2021/10/13 15:43:50;;;;;;;1.88;0.80;;;;;;;;;;5151309;27;20023;-56
2021/10/13 15:46:16;;;;;;;4.55;0.82;;;;;;;;;;5149931;27;20144;-54
2021/10/13 15:48:42;;;;;;;3.05;0.93;;;;;;;;;;5132198;27;20498;-63
2021/10/13 15:51:08;;;;;;;4.18;1.00;;;;;;;;;;5149700;27;20061;-59
2021/10/13 15:53:34;;;;;;;3.38;0.95;;;;;;;;;;5150754;27;20015;-57
2021/10/13 15:56:00;;;;;;;3.85;1.10;;;;;;;;;;5149977;27;20474;-56
2021/10/13 15:58:26;;;;;;;1.88;0.90;;;;;;;;;;5150623;27;20030;-51
2021/10/13 16:00:52;;;;;;;1.50;0.88;;;;;;;;;;5150425;27;20412;-54
2021/10/13 16:03:18;;;;;;;3.42;1.30;;;;;;;;;;5138368;27;20049;-48
2021/10/13 16:05:44;;;;;;;3.28;1.17;;;;;;;;;;5129318;28;20402;-48
2021/10/13 16:08:11;;;;;;;3.65;1.05;;;;;;;;;;5128962;28;20022;-49
2021/10/13 16:10:37;;;;;;;3.42;1.00;;;;;;;;;;5129509;28;20019;-47
2021/10/13 16:13:03;;;;;;;3.30;1.10;;;;;;;;;;5128626;28;20046;-46
2021/10/13 16:15:29;;;;;;;4.28;1.45;;;;;;;;;;5129550;28;20030;-47
2021/10/13 16:17:56;;;;;;;2.17;0.77;;;;;;;;;;5130543;28;20012;-54
2021/10/13 16:20:22;;;;;;;5.68;0.98;;;;;;;;;;5129122;28;20095;-56
2021/10/13 16:22:48;;;;;;;3.00;0.80;;;;;;;;;;5128908;28;20038;-56
2021/10/13 16:25:14;;;;;;;3.92;1.15;;;;;;;;;;5128327;28;20376;-56
2021/10/13 16:27:40;;;;;;;3.03;0.80;;;;;;;;;;5129345;28;20027;-54
2021/10/13 16:30:07;;;;;;;5.45;1.00;;;;;;;;;;5128498;28;20022;-56
2021/10/13 16:32:34;;;;;;;5.07;1.00;;;;;;;;;;5128969;27;20019;-56
2021/10/13 16:35:00;;;;;;;5.20;1.00;;;;;;;;;;5128123;28;20070;-54
2021/10/13 16:37:26;;;;;;;3.63;0.93;;;;;;;;;;5128710;28;20456;-56
2021/10/13 16:39:52;;;;;;;2.95;1.00;;;;;;;;;;5129202;28;20079;-55
2021/10/13 16:42:18;;;;;;;3.55;0.82;;;;;;;;;;5128622;28;20030;-54
2021/10/13 16:44:44;;;;;;;5.55;1.45;;;;;;;;;;5125202;27;20031;-56
2021/10/13 16:47:10;;;;;;;5.32;0.98;;;;;;;;;;5101764;28;20016;-56
2021/10/13 16:49:36;;;;;;;1.45;0.65;;;;;;;;;;5115011;28;20145;-56
2021/10/13 16:52:02;;;;;;;3.03;0.82;;;;;;;;;;5114111;28;20106;-52
2021/10/13 16:54:28;;;;;;;3.00;0.73;;;;;;;;;;5114988;28;20023;-55
2021/10/13 16:56:55;;;;;;;5.40;1.30;;;;;;;;;;5115078;28;20064;-55
2021/10/13 16:59:21;;;;;;;2.50;1.05;;;;;;;;;;5114312;28;20028;-54
2021/10/13 17:01:47;;;;;;;5.18;1.00;;;;;;;;;;5115078;28;20391;-55
2021/10/13 17:04:13;;;;;;;3.17;0.60;;;;;;;;;;5113653;28;20460;-56
2021/10/13 17:06:39;;;;;;;1.00;0.80;;;;;;;;;;5114830;28;20034;-55
2021/10/13 17:09:05;;;;;;;1.63;0.90;;;;;;;;;;5114142;28;20092;-55
2021/10/13 17:11:31;;;;;;;3.03;0.95;;;;;;;;;;5115136;28;20019;-55
2021/10/13 17:13:57;;;;;;;1.05;0.70;;;;;;;;;;5114373;28;20022;-54
2021/10/13 17:16:23;;;;;;;1.58;0.80;;;;;;;;;;5114086;28;20527;-56
2021/10/13 17:18:49;;;;;;;1.65;0.93;;;;;;;;;;5114534;28;20027;-55
2021/10/13 17:21:16;;;;;;;4.03;0.80;;;;;;;;;;5113447;28;20527;-56
2021/10/13 17:23:42;;;;;;;5.28;0.88;;;;;;;;;;5114425;28;20012;-56
2021/10/13 17:26:09;;;;;;;4.38;0.90;;;;;;;;;;5113761;28;20019;-56
2021/10/13 17:28:35;;;;;;;4.60;1.00;;;;;;;;;;5114419;28;20095;-55
2021/10/13 17:31:01;;;;;;;1.33;0.80;;;;;;;;;;5113733;28;20019;-55
2021/10/13 17:33:27;;;;;;;2.03;1.23;;;;;;;;;;5114063;28;20019;-53
2021/10/13 17:35:53;;;;;;;1.70;0.88;;;;;;;;;;5113791;28;20056;-55
2021/10/13 17:38:19;;;;;;;2.78;1.00;;;;;;;;;;5113250;28;20127;-57
2021/10/13 17:40:45;;;;;;;4.05;1.20;;;;;;;;;;5114299;28;20043;-61
2021/10/13 17:43:11;;;;;;;3.05;0.70;;;;;;;;;;5113106;28;20023;-57
2021/10/13 17:45:37;;;;;;;6.00;0.80;;;;;;;;;;5114370;28;20023;-58
2021/10/13 17:48:03;;;;;;;3.75;1.00;;;;;;;;;;5113231;28;20483;-57
2021/10/13 17:50:29;;;;;;;4.70;1.45;;;;;;;;;;5114237;28;20019;-56
2021/10/13 17:52:56;;;;;;;4.93;1.30;;;;;;;;;;5113726;28;20410;-57
2021/10/13 17:55:22;;;;;;;7.95;1.05;;;;;;;;;;5112932;28;20667;-55
2021/10/13 17:57:48;;;;;;;4.70;1.17;;;;;;;;;;5113208;28;20084;-56
2021/10/13 18:00:14;;;;;;;2.55;1.15;;;;;;;;;;5112915;28;20089;-56
2021/10/13 18:02:40;;;;;;;5.07;1.70;;;;;;;;;;5113808;28;20034;-54
2021/10/13 18:05:07;;;;;;;3.10;1.20;;;;;;;;;;5112664;28;20032;-58
2021/10/13 18:07:33;;;;;;;3.15;1.13;;;;;;;;;;5113779;28;20018;-59
2021/10/13 18:09:59;;;;;;;3.90;1.35;;;;;;;;;;5112972;28;20027;-58
2021/10/13 18:12:26;;;;;;;4.22;1.42;;;;;;;;;;5113325;28;20371;-61
2021/10/13 18:14:52;;;;;;;7.07;1.05;;;;;;;;;;5113389;28;20436;-60
2021/10/13 18:17:18;;;;;;;5.00;1.40;;;;;;;;;;5112815;28;20116;-61
2021/10/13 18:19:44;;;;;;;4.45;1.45;;;;;;;;;;5120993;27;20445;-55
2021/10/13 18:22:12;;;;;;;4.55;0.82;;;;;;;;;;5115026;28;20478;-59
2021/10/13 18:24:38;;;;;;;11.00;1.10;;;;;;;;;;5113143;28;20015;-55
2021/10/13 18:27:06;;;;;;;7.45;1.27;;;;;;;;;;5106849;27;21482;-47
2021/10/13 18:29:33;;;;;;;7.13;1.30;;;;;;;;;;5116468;27;20027;-54
2021/10/13 18:31:59;;;;;;;4.50;1.60;;;;;;;;;;5135348;27;20011;-55
2021/10/13 18:34:25;;;;;;;10.77;1.42;;;;;;;;;;5112139;28;20123;-59
2021/10/13 18:36:51;;;;;;;8.85;1.35;;;;;;;;;;5113040;28;20363;-52
2021/10/13 18:39:17;;;;;;;3.25;1.17;;;;;;;;;;5111907;28;20103;-58
2021/10/13 18:41:43;;;;;;;6.95;1.38;;;;;;;;;;5113084;28;20364;-54
2021/10/13 18:44:09;;;;;;;3.10;1.08;;;;;;;;;;5111954;28;20015;-55
2021/10/13 18:46:35;;;;;;;4.22;1.05;;;;;;;;;;5112872;28;20087;-57
2021/10/13 18:49:01;;;;;;;2.67;1.00;;;;;;;;;;5111534;28;20095;-57
2021/10/13 18:51:28;;;;;;;3.03;1.45;;;;;;;;;;5112287;28;20043;-56
2021/10/13 18:53:54;;;;;;;10.20;1.23;;;;;;;;;;5112512;28;20023;-48
2021/10/13 18:56:20;;;;;;;5.32;1.50;;;;;;;;;;5111950;28;20135;-52
2021/10/13 18:58:47;;;;;;;3.78;1.30;;;;;;;;;;5116493;27;20019;-48
2021/10/13 19:01:13;;;;;;;3.72;1.23;;;;;;;;;;5132322;27;20021;-58
2021/10/13 19:03:39;;;;;;;8.68;2.20;;;;;;;;;;5119419;27;20050;-46
2021/10/13 19:06:05;;;;;;;3.70;2.00;;;;;;;;;;5111827;28;20448;-57
2021/10/13 19:08:31;;;;;;;3.03;1.20;;;;;;;;;;5112727;28;20028;-56
2021/10/13 19:10:57;;;;;;;2.40;1.15;;;;;;;;;;5111965;28;20020;-55
2021/10/13 19:13:23;;;;;;;2.30;0.88;;;;;;;;;;5111505;28;20028;-55
2021/10/13 19:15:51;;;;;;;4.13;1.13;;;;;;;;;;5112306;28;20068;-58
2021/10/13 19:18:18;;;;;;;6.15;1.20;;;;;;;;;;5110854;28;20453;-60
2021/10/13 19:20:44;;;;;;;5.68;1.10;;;;;;;;;;5126193;27;20041;-60
2021/10/13 19:23:10;;;;;;;4.95;1.20;;;;;;;;;;5131644;27;20416;-59
2021/10/13 19:25:36;;;;;;;4.70;1.42;;;;;;;;;;5132000;27;20109;-61
2021/10/13 19:28:02;;;;;;;2.55;0.95;;;;;;;;;;5127812;27;20051;-60
2021/10/13 19:30:28;;;;;;;2.55;1.08;;;;;;;;;;5107126;28;20020;-59
2021/10/13 19:32:55;;;;;;;4.00;1.10;;;;;;;;;;5111995;28;20401;-58
2021/10/13 19:35:21;;;;;;;5.55;1.38;;;;;;;;;;5111043;28;20052;-60
2021/10/13 19:37:47;;;;;;;4.80;1.10;;;;;;;;;;5112155;28;20073;-59
2021/10/13 19:40:15;;;;;;;5.40;1.10;;;;;;;;;;5111454;28;20233;-58
2021/10/13 19:42:41;;;;;;;3.40;1.27;;;;;;;;;;5112191;28;20057;-58
2021/10/13 19:45:08;;;;;;;5.18;1.30;;;;;;;;;;5111017;28;20415;-58
2021/10/13 19:47:34;;;;;;;4.93;1.10;;;;;;;;;;5111281;28;20085;-57
2021/10/13 19:50:00;;;;;;;1.98;0.90;;;;;;;;;;5112286;28;20019;-58
2021/10/13 19:52:26;;;;;;;3.95;0.90;;;;;;;;;;5111373;28;20012;-58
2021/10/13 19:54:56;;;;;;;3.67;1.00;;;;;;;;;;5111114;28;20015;-58
2021/10/13 19:57:22;;;;;;;2.13;1.08;;;;;;;;;;5110578;28;20110;-58
2021/10/13 19:59:49;;;;;;;1.95;1.15;;;;;;;;;;5103653;28;20039;-58
2021/10/13 20:02:15;;;;;;;2.47;1.40;;;;;;;;;;5117615;28;20023;-58
2021/10/13 20:04:41;;;;;;;20.25;1.75;;;;;;;;;;5119600;28;20133;-58
2021/10/13 20:07:08;;;;;;;6.68;1.25;;;;;;;;;;5118437;28;20019;-58
2021/10/13 20:09:35;;;;;;;3.97;1.30;;;;;;;;;;5121362;28;20015;-58
2021/10/13 20:12:02;;;;;;;4.05;1.83;;;;;;;;;;5121783;28;20066;-58
2021/10/13 20:14:28;;;;;;;3.60;1.10;;;;;;;;;;5118445;28;20041;-58
2021/10/13 20:16:54;;;;;;;2.53;1.10;;;;;;;;;;5121319;28;20023;-58
2021/10/13 20:19:20;;;;;;;2.53;0.90;;;;;;;;;;5122554;28;20371;-57
2021/10/13 20:21:46;;;;;;;2.63;1.15;;;;;;;;;;5120866;27;20015;-58
2021/10/13 20:24:12;;;;;;;2.00;0.85;;;;;;;;;;5122540;27;20023;-57
2021/10/13 20:26:38;;;;;;;2.63;1.10;;;;;;;;;;5124480;27;20019;-59
2021/10/13 20:29:04;;;;;;;2.20;1.25;;;;;;;;;;5125800;27;20016;-57
2021/10/13 20:31:30;;;;;;;2.72;0.90;;;;;;;;;;5124724;27;20012;-57
2021/10/13 20:33:56;;;;;;;2.30;1.25;;;;;;;;;;5126268;27;20064;-58
2021/10/13 20:36:22;;;;;;;2.45;0.90;;;;;;;;;;5124067;27;20629;-58
2021/10/13 20:38:48;;;;;;;2.92;0.90;;;;;;;;;;5125068;27;20090;-58
2021/10/13 20:41:15;;;;;;;4.20;1.50;;;;;;;;;;5122750;27;20100;-60
2021/10/13 20:43:41;;;;;;;1.55;1.10;;;;;;;;;;5124097;27;20016;-58
2021/10/13 20:46:07;;;;;;;1.55;0.98;;;;;;;;;;5121928;27;20444;-57
2021/10/13 20:48:33;;;;;;;3.70;1.08;;;;;;;;;;5123810;27;20525;-58
2021/10/13 20:50:59;;;;;;;1.92;1.13;;;;;;;;;;5122669;27;20055;-58
2021/10/13 20:53:26;;;;;;;1.95;1.33;;;;;;;;;;5122992;27;20031;-58
2021/10/13 20:55:53;;;;;;;1.98;1.05;;;;;;;;;;5122277;27;20409;-58
2021/10/13 20:58:19;;;;;;;1.02;0.82;;;;;;;;;;5125618;27;20744;-58
2021/10/13 21:00:45;;;;;;;3.17;1.02;;;;;;;;;;5107529;27;20026;-58
2021/10/13 21:03:11;;;;;;;2.45;1.00;;;;;;;;;;5122274;27;20004;-57
2021/10/13 21:05:37;;;;;;;1.98;0.95;;;;;;;;;;5123438;27;20444;-58
2021/10/13 21:08:05;;;;;;;4.35;1.17;;;;;;;;;;5122517;27;20032;-57
2021/10/13 21:10:31;;;;;;;2.03;1.42;;;;;;;;;;5124657;27;20081;-58
2021/10/13 21:13:02;;;;;;;2.00;1.27;;;;;;;;;;5122630;27;20076;-58
2021/10/13 21:15:28;;;;;;;0.93;0.87;;;;;;;;;;5121312;27;20113;-57
2021/10/13 21:17:54;;;;;;;1.95;1.20;;;;;;;;;;5123724;27;20102;-58
2021/10/13 21:20:21;;;;;;;1.20;1.10;;;;;;;;;;5122032;27;20016;-58
2021/10/13 21:22:47;;;;;;;1.30;1.00;;;;;;;;;;5121991;27;20029;-58
2021/10/13 21:25:13;;;;;;;1.50;1.00;;;;;;;;;;5113671;28;20461;-58
2021/10/13 21:27:39;;;;;;;1.45;1.00;;;;;;;;;;5114460;28;20031;-57
2021/10/13 21:30:05;;;;;;;2.30;1.15;;;;;;;;;;5114162;28;20020;-57
2021/10/13 21:32:32;;;;;;;1.30;1.08;;;;;;;;;;5114623;28;20020;-58
2021/10/13 21:34:58;;;;;;;2.10;1.05;;;;;;;;;;5114058;28;20059;-58
2021/10/13 21:37:24;;;;;;;1.60;0.90;;;;;;;;;;5113838;28;20648;-58
2021/10/13 21:39:50;;;;;;;1.67;1.05;;;;;;;;;;5114357;28;20054;-58
2021/10/13 21:42:16;;;;;;;3.20;1.20;;;;;;;;;;5113332;28;20023;-58
2021/10/13 21:44:42;;;;;;;1.85;1.13;;;;;;;;;;5114015;28;20073;-58
2021/10/13 21:47:08;;;;;;;1.17;1.00;;;;;;;;;;5113341;28;20409;-57
2021/10/13 21:49:34;;;;;;;1.77;1.10;;;;;;;;;;5114405;28;20055;-57
2021/10/13 21:52:00;;;;;;;1.58;1.10;;;;;;;;;;5114048;28;20050;-58
2021/10/13 21:54:26;;;;;;;1.90;1.08;;;;;;;;;;5112947;28;20050;-58
2021/10/13 21:56:52;;;;;;;2.05;0.93;;;;;;;;;;5113991;28;20456;-57
2021/10/13 21:59:18;;;;;;;1.73;1.10;;;;;;;;;;5113266;28;20058;-58
2021/10/13 22:01:44;;;;;;;1.88;1.08;;;;;;;;;;5113952;28;20022;-58
2021/10/13 22:04:10;;;;;;;1.48;1.00;;;;;;;;;;5112669;28;20020;-57
2021/10/13 22:06:36;;;;;;;3.67;1.50;;;;;;;;;;5114080;28;20402;-58
2021/10/13 22:09:02;;;;;;;1.98;1.23;;;;;;;;;;5113813;28;20043;-58
2021/10/13 22:11:28;;;;;;;1.45;0.98;;;;;;;;;;5112820;28;20020;-57
2021/10/13 22:13:54;;;;;;;1.83;1.00;;;;;;;;;;5113599;28;20020;-58
2021/10/13 22:16:20;;;;;;;1.30;0.90;;;;;;;;;;5112900;28;20027;-57
2021/10/13 22:18:46;;;;;;;5.45;1.27;;;;;;;;;;5113590;28;20030;-58
2021/10/13 22:21:14;;;;;;;1.63;0.90;;;;;;;;;;5130456;27;20018;-58
2021/10/13 22:23:41;;;;;;;1.90;0.90;;;;;;;;;;5134082;27;20071;-58
2021/10/13 22:26:07;;;;;;;1.23;0.90;;;;;;;;;;5133519;27;20050;-57
2021/10/13 22:28:33;;;;;;;1.38;0.90;;;;;;;;;;5133539;27;20042;-58
2021/10/13 22:30:59;;;;;;;1.10;1.00;;;;;;;;;;5133622;27;20535;-57
2021/10/13 22:33:25;;;;;;;2.10;1.10;;;;;;;;;;5114754;27;20079;-58
2021/10/13 22:35:51;;;;;;;1.27;1.08;;;;;;;;;;5133323;27;20484;-58
2021/10/13 22:38:18;;;;;;;2.15;0.90;;;;;;;;;;5132990;27;20133;-57
2021/10/13 22:40:44;;;;;;;1.65;1.20;;;;;;;;;;5133863;27;20023;-58
2021/10/13 22:43:10;;;;;;;1.17;1.00;;;;;;;;;;5132973;27;20015;-58
2021/10/13 22:45:36;;;;;;;1.27;1.10;;;;;;;;;;5133131;27;20352;-57
2021/10/13 22:48:02;;;;;;;8.30;1.30;;;;;;;;;;5133691;27;20027;-58
2021/10/13 22:50:30;;;;;;;1.40;0.90;;;;;;;;;;5133136;27;20023;-57
2021/10/13 22:53:01;;;;;;;1.38;0.73;;;;;;;;;;5133509;27;20030;-58
2021/10/13 22:55:29;;;;;;;2.30;0.90;;;;;;;;;;5133001;27;20155;-57
2021/10/13 22:57:55;;;;;;;1.02;0.80;;;;;;;;;;5115205;27;20359;-58
2021/10/13 23:00:21;;;;;;;1.00;0.80;;;;;;;;;;5132232;27;20340;-57
2021/10/13 23:02:47;;;;;;;1.30;0.90;;;;;;;;;;5133385;27;20015;-58
2021/10/13 23:05:13;;;;;;;1.83;0.90;;;;;;;;;;5132280;27;20066;-57
2021/10/13 23:07:39;;;;;;;1.50;0.80;;;;;;;;;;5133398;27;20027;-57
2021/10/13 23:10:05;;;;;;;1.75;1.40;;;;;;;;;;5133688;27;20026;-58
2021/10/13 23:12:31;;;;;;;1.55;0.95;;;;;;;;;;5132692;27;20018;-57
2021/10/13 23:14:57;;;;;;;1.38;0.95;;;;;;;;;;5133070;27;20345;-58
2021/10/13 23:17:23;;;;;;;1.10;0.90;;;;;;;;;;5132386;27;20467;-57
2021/10/13 23:19:50;;;;;;;1.10;1.00;;;;;;;;;;5126508;27;20102;-58
2021/10/13 23:22:16;;;;;;;2.30;1.58;;;;;;;;;;5111637;28;20091;-57
2021/10/13 23:24:42;;;;;;;2.80;1.00;;;;;;;;;;5112364;28;20119;-59
2021/10/13 23:27:08;;;;;;;1.27;0.98;;;;;;;;;;5112210;28;20031;-60
2021/10/13 23:29:35;;;;;;;1.58;0.93;;;;;;;;;;5112196;28;20524;-60
2021/10/13 23:32:02;;;;;;;1.23;1.05;;;;;;;;;;5112153;28;20356;-61
2021/10/13 23:34:28;;;;;;;1.50;1.23;;;;;;;;;;5111170;28;20043;-57
2021/10/13 23:36:54;;;;;;;1.08;0.93;;;;;;;;;;5112601;28;20011;-58
2021/10/13 23:39:20;;;;;;;0.88;0.77;;;;;;;;;;5111309;28;20015;-57
2021/10/13 23:41:46;;;;;;;0.95;0.70;;;;;;;;;;5112448;28;20475;-58
2021/10/13 23:44:12;;;;;;;1.30;0.70;;;;;;;;;;5111544;28;20103;-58
2021/10/13 23:46:38;;;;;;;1.52;1.00;;;;;;;;;;5112123;28;20106;-58
2021/10/13 23:49:04;;;;;;;1.67;1.15;;;;;;;;;;5112311;28;20069;-57
2021/10/13 23:51:30;;;;;;;1.50;0.95;;;;;;;;;;5111326;28;20621;-58
2021/10/13 23:53:56;;;;;;;1.90;0.80;;;;;;;;;;5111984;28;20065;-58
2021/10/13 23:56:23;;;;;;;1.52;1.17;;;;;;;;;;5112117;28;20035;-57
2021/10/13 23:58:48;;;;;;;1.40;0.98;;;;;;;;;;5116342;28;20022;-58
